sensor_id;sensor_type;location;lat;lon;timestamp;temperature;humidity
21019;DHT22;10667;51.056;3.732;2024-03-02T00:00:43;7.40;99.90
21019;DHT22;10667;51.056;3.732;2024-03-02T00:03:09;7.50;99.90
21019;DHT22;10667;51.056;3.732;2024-03-02T00:05:35;7.50;99.90
21019;DHT22;10667;51.056;3.732;2024-03-02T00:08:01;7.60;99.90
21019;DHT22;10667;51.056;3.732;2024-03-02T00:10:37;7.60;99.90
21019;DHT22;10667;51.056;3.732;2024-03-02T00:13:06;7.60;99.90
21019;DHT22;10667;51.056;3.732;2024-03-02T00:18:04;7.60;99.90
21019;DHT22;10667;51.056;3.732;2024-03-02T00:20:30;7.50;99.90
21019;DHT22;10667;51.056;3.732;2024-03-02T00:23:04;7.60;99.90
21019;DHT22;10667;51.056;3.732;2024-03-02T00:25:47;7.60;99.90
21019;DHT22;10667;51.056;3.732;2024-03-02T00:28:19;7.60;99.90
21019;DHT22;10667;51.056;3.732;2024-03-02T00:30:59;7.50;99.90
21019;DHT22;10667;51.056;3.732;2024-03-02T00:33:31;7.50;99.90
21019;DHT22;10667;51.056;3.732;2024-03-02T00:35:57;7.40;99.90
21019;DHT22;10667;51.056;3.732;2024-03-02T00:38:25;7.40;99.90
21019;DHT22;10667;51.056;3.732;2024-03-02T00:40:51;7.40;99.90
21019;DHT22;10667;51.056;3.732;2024-03-02T00:45:52;7.40;99.90
21019;DHT22;10667;51.056;3.732;2024-03-02T00:48:17;7.40;99.90
21019;DHT22;10667;51.056;3.732;2024-03-02T00:50:43;7.40;99.90
21019;DHT22;10667;51.056;3.732;2024-03-02T00:53:12;7.40;99.90
21019;DHT22;10667;51.056;3.732;2024-03-02T00:55:38;7.40;99.90
21019;DHT22;10667;51.056;3.732;2024-03-02T00:58:05;7.50;99.90
21019;DHT22;10667;51.056;3.732;2024-03-02T01:00:30;7.70;99.90
21019;DHT22;10667;51.056;3.732;2024-03-02T01:02:56;7.70;99.90
21019;DHT22;10667;51.056;3.732;2024-03-02T01:05:21;7.60;99.90
21019;DHT22;10667;51.056;3.732;2024-03-02T01:07:47;7.50;99.90
21019;DHT22;10667;51.056;3.732;2024-03-02T01:10:13;7.40;99.90
21019;DHT22;10667;51.056;3.732;2024-03-02T01:12:38;7.40;99.90
21019;DHT22;10667;51.056;3.732;2024-03-02T01:15:05;7.40;99.90
21019;DHT22;10667;51.056;3.732;2024-03-02T01:17:33;7.30;99.90
21019;DHT22;10667;51.056;3.732;2024-03-02T01:19:59;7.30;99.90
21019;DHT22;10667;51.056;3.732;2024-03-02T01:22:24;7.20;99.90
21019;DHT22;10667;51.056;3.732;2024-03-02T01:24:51;7.20;99.90
21019;DHT22;10667;51.056;3.732;2024-03-02T01:27:17;7.20;99.90
21019;DHT22;10667;51.056;3.732;2024-03-02T01:29:42;7.30;99.90
21019;DHT22;10667;51.056;3.732;2024-03-02T01:32:08;7.20;99.90
21019;DHT22;10667;51.056;3.732;2024-03-02T01:34:33;7.30;99.90
21019;DHT22;10667;51.056;3.732;2024-03-02T01:36:59;7.30;99.90
21019;DHT22;10667;51.056;3.732;2024-03-02T01:39:24;7.40;99.90
21019;DHT22;10667;51.056;3.732;2024-03-02T01:41:50;7.30;99.90
21019;DHT22;10667;51.056;3.732;2024-03-02T01:44:16;7.30;99.90
21019;DHT22;10667;51.056;3.732;2024-03-02T01:46:42;7.30;99.90
21019;DHT22;10667;51.056;3.732;2024-03-02T01:49:08;7.40;99.90
21019;DHT22;10667;51.056;3.732;2024-03-02T01:51:33;7.30;99.90
21019;DHT22;10667;51.056;3.732;2024-03-02T01:53:59;7.30;99.90
21019;DHT22;10667;51.056;3.732;2024-03-02T01:56:25;7.30;99.90
21019;DHT22;10667;51.056;3.732;2024-03-02T01:58:51;7.20;99.90
21019;DHT22;10667;51.056;3.732;2024-03-02T02:01:16;7.20;99.90
21019;DHT22;10667;51.056;3.732;2024-03-02T02:03:43;7.20;99.90
21019;DHT22;10667;51.056;3.732;2024-03-02T02:06:09;7.30;99.90
21019;DHT22;10667;51.056;3.732;2024-03-02T02:08:37;7.20;99.90
21019;DHT22;10667;51.056;3.732;2024-03-02T02:11:03;7.20;99.90
21019;DHT22;10667;51.056;3.732;2024-03-02T02:13:28;7.30;99.90
21019;DHT22;10667;51.056;3.732;2024-03-02T02:15:54;7.30;99.90
21019;DHT22;10667;51.056;3.732;2024-03-02T02:18:20;7.30;99.90
21019;DHT22;10667;51.056;3.732;2024-03-02T02:20:45;7.20;99.90
21019;DHT22;10667;51.056;3.732;2024-03-02T02:23:11;7.30;99.90
21019;DHT22;10667;51.056;3.732;2024-03-02T02:25:38;7.20;99.90
21019;DHT22;10667;51.056;3.732;2024-03-02T02:28:04;7.20;99.90
21019;DHT22;10667;51.056;3.732;2024-03-02T02:30:31;7.20;99.90
21019;DHT22;10667;51.056;3.732;2024-03-02T02:32:58;7.20;99.90
21019;DHT22;10667;51.056;3.732;2024-03-02T02:35:24;7.10;99.90
21019;DHT22;10667;51.056;3.732;2024-03-02T02:37:50;7.10;99.90
21019;DHT22;10667;51.056;3.732;2024-03-02T02:40:17;7.10;99.90
21019;DHT22;10667;51.056;3.732;2024-03-02T02:42:44;7.10;99.90
21019;DHT22;10667;51.056;3.732;2024-03-02T02:45:09;7.10;99.90
21019;DHT22;10667;51.056;3.732;2024-03-02T02:47:36;7.20;99.90
21019;DHT22;10667;51.056;3.732;2024-03-02T02:50:03;7.20;99.90
21019;DHT22;10667;51.056;3.732;2024-03-02T02:52:33;7.20;99.90
21019;DHT22;10667;51.056;3.732;2024-03-02T02:55:01;7.30;99.90
21019;DHT22;10667;51.056;3.732;2024-03-02T02:57:28;7.20;99.90
21019;DHT22;10667;51.056;3.732;2024-03-02T02:59:56;7.20;99.90
21019;DHT22;10667;51.056;3.732;2024-03-02T03:02:21;7.10;99.90
21019;DHT22;10667;51.056;3.732;2024-03-02T03:04:47;7.20;99.90
21019;DHT22;10667;51.056;3.732;2024-03-02T03:07:13;7.10;99.90
21019;DHT22;10667;51.056;3.732;2024-03-02T03:09:38;7.20;99.90
21019;DHT22;10667;51.056;3.732;2024-03-02T03:12:04;7.20;99.90
21019;DHT22;10667;51.056;3.732;2024-03-02T03:14:30;7.20;99.90
21019;DHT22;10667;51.056;3.732;2024-03-02T03:16:55;7.20;99.90
21019;DHT22;10667;51.056;3.732;2024-03-02T03:19:21;7.10;99.90
21019;DHT22;10667;51.056;3.732;2024-03-02T03:21:47;7.10;99.90
21019;DHT22;10667;51.056;3.732;2024-03-02T03:24:12;7.10;99.90
21019;DHT22;10667;51.056;3.732;2024-03-02T03:26:38;7.20;99.90
21019;DHT22;10667;51.056;3.732;2024-03-02T03:29:03;7.20;99.90
21019;DHT22;10667;51.056;3.732;2024-03-02T03:31:29;7.20;99.90
21019;DHT22;10667;51.056;3.732;2024-03-02T03:33:55;7.10;99.90
21019;DHT22;10667;51.056;3.732;2024-03-02T03:36:21;7.10;99.90
21019;DHT22;10667;51.056;3.732;2024-03-02T03:38:46;7.10;99.90
21019;DHT22;10667;51.056;3.732;2024-03-02T03:41:12;7.10;99.90
21019;DHT22;10667;51.056;3.732;2024-03-02T03:43:37;7.00;99.90
21019;DHT22;10667;51.056;3.732;2024-03-02T03:46:03;7.10;99.90
21019;DHT22;10667;51.056;3.732;2024-03-02T03:48:29;7.20;99.90
21019;DHT22;10667;51.056;3.732;2024-03-02T03:50:56;7.10;99.90
21019;DHT22;10667;51.056;3.732;2024-03-02T03:53:22;7.00;99.90
21019;DHT22;10667;51.056;3.732;2024-03-02T03:55:48;7.00;99.90
21019;DHT22;10667;51.056;3.732;2024-03-02T03:58:15;7.10;99.90
21019;DHT22;10667;51.056;3.732;2024-03-02T04:00:42;7.10;99.90
21019;DHT22;10667;51.056;3.732;2024-03-02T04:03:08;7.10;99.90
21019;DHT22;10667;51.056;3.732;2024-03-02T04:05:33;7.10;99.90
21019;DHT22;10667;51.056;3.732;2024-03-02T04:07:59;7.00;99.90
21019;DHT22;10667;51.056;3.732;2024-03-02T04:10:26;6.90;99.90
21019;DHT22;10667;51.056;3.732;2024-03-02T04:12:51;6.90;99.90
21019;DHT22;10667;51.056;3.732;2024-03-02T04:15:17;6.80;99.90
21019;DHT22;10667;51.056;3.732;2024-03-02T04:17:44;6.90;99.90
21019;DHT22;10667;51.056;3.732;2024-03-02T04:20:10;7.10;99.90
21019;DHT22;10667;51.056;3.732;2024-03-02T04:22:38;7.00;99.90
21019;DHT22;10667;51.056;3.732;2024-03-02T04:25:03;7.10;99.90
21019;DHT22;10667;51.056;3.732;2024-03-02T04:27:30;7.00;99.90
21019;DHT22;10667;51.056;3.732;2024-03-02T04:29:57;7.00;99.90
21019;DHT22;10667;51.056;3.732;2024-03-02T04:32:23;7.10;99.90
21019;DHT22;10667;51.056;3.732;2024-03-02T04:34:48;7.10;99.90
21019;DHT22;10667;51.056;3.732;2024-03-02T04:37:14;7.10;99.90
21019;DHT22;10667;51.056;3.732;2024-03-02T04:39:40;7.10;99.90
21019;DHT22;10667;51.056;3.732;2024-03-02T04:42:05;7.20;99.90
21019;DHT22;10667;51.056;3.732;2024-03-02T04:44:31;7.30;99.90
21019;DHT22;10667;51.056;3.732;2024-03-02T04:46:57;7.30;99.90
21019;DHT22;10667;51.056;3.732;2024-03-02T04:49:23;7.40;99.90
21019;DHT22;10667;51.056;3.732;2024-03-02T04:51:49;7.40;99.90
21019;DHT22;10667;51.056;3.732;2024-03-02T04:54:14;7.40;99.90
21019;DHT22;10667;51.056;3.732;2024-03-02T04:56:40;7.30;99.90
21019;DHT22;10667;51.056;3.732;2024-03-02T04:59:10;7.20;99.90
21019;DHT22;10667;51.056;3.732;2024-03-02T05:01:36;7.20;99.90
21019;DHT22;10667;51.056;3.732;2024-03-02T05:04:02;7.10;99.90
21019;DHT22;10667;51.056;3.732;2024-03-02T05:06:27;7.10;99.90
21019;DHT22;10667;51.056;3.732;2024-03-02T05:08:53;7.20;99.90
21019;DHT22;10667;51.056;3.732;2024-03-02T05:11:18;7.10;99.90
21019;DHT22;10667;51.056;3.732;2024-03-02T05:14:03;7.00;99.90
21019;DHT22;10667;51.056;3.732;2024-03-02T05:16:28;7.00;99.90
21019;DHT22;10667;51.056;3.732;2024-03-02T05:18:54;7.00;99.90
21019;DHT22;10667;51.056;3.732;2024-03-02T05:21:19;7.00;99.90
21019;DHT22;10667;51.056;3.732;2024-03-02T05:23:45;7.00;99.90
21019;DHT22;10667;51.056;3.732;2024-03-02T05:26:11;7.00;99.90
21019;DHT22;10667;51.056;3.732;2024-03-02T05:28:39;6.90;99.90
21019;DHT22;10667;51.056;3.732;2024-03-02T05:31:05;7.10;99.90
21019;DHT22;10667;51.056;3.732;2024-03-02T05:33:31;7.00;99.90
21019;DHT22;10667;51.056;3.732;2024-03-02T05:35:58;7.00;99.90
21019;DHT22;10667;51.056;3.732;2024-03-02T05:38:24;6.90;99.90
21019;DHT22;10667;51.056;3.732;2024-03-02T05:40:50;6.90;99.90
21019;DHT22;10667;51.056;3.732;2024-03-02T05:43:15;6.90;99.90
21019;DHT22;10667;51.056;3.732;2024-03-02T05:45:41;6.90;99.90
21019;DHT22;10667;51.056;3.732;2024-03-02T05:48:07;6.80;99.90
21019;DHT22;10667;51.056;3.732;2024-03-02T05:50:33;7.00;99.90
21019;DHT22;10667;51.056;3.732;2024-03-02T05:52:59;7.00;99.90
21019;DHT22;10667;51.056;3.732;2024-03-02T05:55:25;7.00;99.90
21019;DHT22;10667;51.056;3.732;2024-03-02T05:57:50;6.90;99.90
21019;DHT22;10667;51.056;3.732;2024-03-02T06:00:31;6.90;99.90
21019;DHT22;10667;51.056;3.732;2024-03-02T06:02:57;6.90;99.90
21019;DHT22;10667;51.056;3.732;2024-03-02T06:05:22;6.80;99.90
21019;DHT22;10667;51.056;3.732;2024-03-02T06:07:48;6.80;99.90
21019;DHT22;10667;51.056;3.732;2024-03-02T06:10:14;6.90;99.90
21019;DHT22;10667;51.056;3.732;2024-03-02T06:12:40;6.90;99.90
21019;DHT22;10667;51.056;3.732;2024-03-02T06:15:06;6.90;99.90
21019;DHT22;10667;51.056;3.732;2024-03-02T06:17:32;6.90;99.90
21019;DHT22;10667;51.056;3.732;2024-03-02T06:19:58;6.80;99.90
21019;DHT22;10667;51.056;3.732;2024-03-02T06:22:23;6.80;99.90
21019;DHT22;10667;51.056;3.732;2024-03-02T06:24:50;6.80;99.90
21019;DHT22;10667;51.056;3.732;2024-03-02T06:27:16;6.80;99.90
21019;DHT22;10667;51.056;3.732;2024-03-02T06:29:42;6.80;99.90
21019;DHT22;10667;51.056;3.732;2024-03-02T06:32:07;6.70;99.90
21019;DHT22;10667;51.056;3.732;2024-03-02T06:34:33;6.70;99.90
21019;DHT22;10667;51.056;3.732;2024-03-02T06:36:59;6.70;99.90
21019;DHT22;10667;51.056;3.732;2024-03-02T06:39:24;6.70;99.90
21019;DHT22;10667;51.056;3.732;2024-03-02T06:41:51;6.70;99.90
21019;DHT22;10667;51.056;3.732;2024-03-02T06:44:17;6.70;99.90
21019;DHT22;10667;51.056;3.732;2024-03-02T06:46:42;6.70;99.90
21019;DHT22;10667;51.056;3.732;2024-03-02T06:49:08;6.70;99.90
21019;DHT22;10667;51.056;3.732;2024-03-02T06:51:35;6.70;99.90
21019;DHT22;10667;51.056;3.732;2024-03-02T06:54:01;6.70;99.90
21019;DHT22;10667;51.056;3.732;2024-03-02T06:56:27;6.80;99.90
21019;DHT22;10667;51.056;3.732;2024-03-02T06:58:52;6.80;99.90
21019;DHT22;10667;51.056;3.732;2024-03-02T07:01:18;6.80;99.90
21019;DHT22;10667;51.056;3.732;2024-03-02T07:03:45;6.80;99.90
21019;DHT22;10667;51.056;3.732;2024-03-02T07:06:11;6.90;99.90
21019;DHT22;10667;51.056;3.732;2024-03-02T07:08:37;6.90;99.90
21019;DHT22;10667;51.056;3.732;2024-03-02T07:11:02;7.00;99.90
21019;DHT22;10667;51.056;3.732;2024-03-02T07:13:28;7.00;99.90
21019;DHT22;10667;51.056;3.732;2024-03-02T07:15:53;7.10;99.90
21019;DHT22;10667;51.056;3.732;2024-03-02T07:18:22;7.10;99.90
21019;DHT22;10667;51.056;3.732;2024-03-02T07:20:47;7.10;99.90
21019;DHT22;10667;51.056;3.732;2024-03-02T07:23:15;7.20;99.90
21019;DHT22;10667;51.056;3.732;2024-03-02T07:25:40;7.10;99.90
21019;DHT22;10667;51.056;3.732;2024-03-02T07:28:06;7.10;99.90
21019;DHT22;10667;51.056;3.732;2024-03-02T07:30:33;7.20;99.90
21019;DHT22;10667;51.056;3.732;2024-03-02T07:32:59;7.30;99.90
21019;DHT22;10667;51.056;3.732;2024-03-02T07:35:25;7.30;99.90
21019;DHT22;10667;51.056;3.732;2024-03-02T07:37:54;7.40;99.90
21019;DHT22;10667;51.056;3.732;2024-03-02T07:40:20;7.40;99.90
21019;DHT22;10667;51.056;3.732;2024-03-02T07:42:46;7.50;99.90
21019;DHT22;10667;51.056;3.732;2024-03-02T07:45:12;7.50;99.90
21019;DHT22;10667;51.056;3.732;2024-03-02T07:47:37;7.60;99.90
21019;DHT22;10667;51.056;3.732;2024-03-02T07:50:03;7.70;99.90
21019;DHT22;10667;51.056;3.732;2024-03-02T07:52:32;7.60;99.90
21019;DHT22;10667;51.056;3.732;2024-03-02T07:54:57;7.80;99.90
21019;DHT22;10667;51.056;3.732;2024-03-02T07:57:23;7.80;99.90
21019;DHT22;10667;51.056;3.732;2024-03-02T07:59:49;7.80;99.90
21019;DHT22;10667;51.056;3.732;2024-03-02T08:02:15;7.80;99.90
21019;DHT22;10667;51.056;3.732;2024-03-02T08:04:41;7.70;99.90
21019;DHT22;10667;51.056;3.732;2024-03-02T08:07:07;7.90;99.90
21019;DHT22;10667;51.056;3.732;2024-03-02T08:09:32;7.90;99.90
21019;DHT22;10667;51.056;3.732;2024-03-02T08:11:58;7.90;99.90
21019;DHT22;10667;51.056;3.732;2024-03-02T08:14:24;7.90;99.90
21019;DHT22;10667;51.056;3.732;2024-03-02T08:16:49;8.00;99.90
21019;DHT22;10667;51.056;3.732;2024-03-02T08:19:15;8.00;99.90
21019;DHT22;10667;51.056;3.732;2024-03-02T08:21:42;8.10;99.90
21019;DHT22;10667;51.056;3.732;2024-03-02T08:24:08;8.20;99.90
21019;DHT22;10667;51.056;3.732;2024-03-02T08:26:34;8.20;99.90
21019;DHT22;10667;51.056;3.732;2024-03-02T08:29:01;8.20;99.90
21019;DHT22;10667;51.056;3.732;2024-03-02T08:31:30;8.30;99.90
21019;DHT22;10667;51.056;3.732;2024-03-02T08:33:55;8.30;99.90
21019;DHT22;10667;51.056;3.732;2024-03-02T08:36:22;8.30;99.90
21019;DHT22;10667;51.056;3.732;2024-03-02T08:38:49;8.30;99.90
21019;DHT22;10667;51.056;3.732;2024-03-02T08:41:15;8.30;99.90
21019;DHT22;10667;51.056;3.732;2024-03-02T08:43:42;8.30;99.90
21019;DHT22;10667;51.056;3.732;2024-03-02T08:46:08;8.30;99.90
21019;DHT22;10667;51.056;3.732;2024-03-02T08:48:34;8.30;99.90
21019;DHT22;10667;51.056;3.732;2024-03-02T08:51:00;8.40;99.90
21019;DHT22;10667;51.056;3.732;2024-03-02T08:53:26;8.40;99.90
21019;DHT22;10667;51.056;3.732;2024-03-02T08:55:51;8.50;99.90
21019;DHT22;10667;51.056;3.732;2024-03-02T08:58:17;8.60;99.90
21019;DHT22;10667;51.056;3.732;2024-03-02T09:00:43;8.50;99.90
21019;DHT22;10667;51.056;3.732;2024-03-02T09:03:09;8.50;99.90
21019;DHT22;10667;51.056;3.732;2024-03-02T09:05:35;8.40;99.90
21019;DHT22;10667;51.056;3.732;2024-03-02T09:08:01;8.40;99.90
21019;DHT22;10667;51.056;3.732;2024-03-02T09:10:26;8.50;99.90
21019;DHT22;10667;51.056;3.732;2024-03-02T09:12:52;8.60;99.90
21019;DHT22;10667;51.056;3.732;2024-03-02T09:15:18;8.70;99.90
21019;DHT22;10667;51.056;3.732;2024-03-02T09:17:43;8.80;99.90
21019;DHT22;10667;51.056;3.732;2024-03-02T09:20:10;9.00;99.90
21019;DHT22;10667;51.056;3.732;2024-03-02T09:22:36;9.10;99.90
21019;DHT22;10667;51.056;3.732;2024-03-02T09:25:02;9.10;99.90
21019;DHT22;10667;51.056;3.732;2024-03-02T09:27:28;9.20;99.90
21019;DHT22;10667;51.056;3.732;2024-03-02T09:29:53;9.30;99.90
21019;DHT22;10667;51.056;3.732;2024-03-02T09:32:19;9.30;99.90
21019;DHT22;10667;51.056;3.732;2024-03-02T09:34:44;9.40;99.90
21019;DHT22;10667;51.056;3.732;2024-03-02T09:37:10;9.40;99.90
21019;DHT22;10667;51.056;3.732;2024-03-02T09:39:36;9.40;99.90
21019;DHT22;10667;51.056;3.732;2024-03-02T09:42:04;9.60;99.90
21019;DHT22;10667;51.056;3.732;2024-03-02T09:44:30;9.60;99.90
21019;DHT22;10667;51.056;3.732;2024-03-02T09:46:55;9.70;99.90
21019;DHT22;10667;51.056;3.732;2024-03-02T09:49:22;9.90;99.90
21019;DHT22;10667;51.056;3.732;2024-03-02T09:51:48;9.90;99.90
21019;DHT22;10667;51.056;3.732;2024-03-02T09:54:15;9.70;99.90
21019;DHT22;10667;51.056;3.732;2024-03-02T09:56:41;9.70;99.90
21019;DHT22;10667;51.056;3.732;2024-03-02T09:59:07;9.80;99.90
21019;DHT22;10667;51.056;3.732;2024-03-02T10:01:33;10.00;99.90
21019;DHT22;10667;51.056;3.732;2024-03-02T10:03:59;10.00;99.90
21019;DHT22;10667;51.056;3.732;2024-03-02T10:06:27;10.00;99.90
21019;DHT22;10667;51.056;3.732;2024-03-02T10:08:54;10.10;99.90
21019;DHT22;10667;51.056;3.732;2024-03-02T10:11:34;10.00;99.90
21019;DHT22;10667;51.056;3.732;2024-03-02T10:14:12;10.00;99.90
21019;DHT22;10667;51.056;3.732;2024-03-02T10:16:42;10.10;99.90
21019;DHT22;10667;51.056;3.732;2024-03-02T10:19:24;10.20;99.90
21019;DHT22;10667;51.056;3.732;2024-03-02T10:21:52;10.20;99.90
21019;DHT22;10667;51.056;3.732;2024-03-02T10:24:19;10.10;99.90
21019;DHT22;10667;51.056;3.732;2024-03-02T10:26:45;10.10;99.90
21019;DHT22;10667;51.056;3.732;2024-03-02T10:29:11;10.10;99.90
21019;DHT22;10667;51.056;3.732;2024-03-02T10:31:38;10.10;99.90
21019;DHT22;10667;51.056;3.732;2024-03-02T10:34:05;9.90;99.90
21019;DHT22;10667;51.056;3.732;2024-03-02T10:36:32;9.90;99.90
21019;DHT22;10667;51.056;3.732;2024-03-02T10:38:58;10.10;99.90
21019;DHT22;10667;51.056;3.732;2024-03-02T10:41:26;10.30;99.90
21019;DHT22;10667;51.056;3.732;2024-03-02T10:43:56;10.30;99.90
21019;DHT22;10667;51.056;3.732;2024-03-02T10:46:28;10.30;99.90
21019;DHT22;10667;51.056;3.732;2024-03-02T10:48:57;10.40;99.90
21019;DHT22;10667;51.056;3.732;2024-03-02T10:51:30;10.50;99.90
21019;DHT22;10667;51.056;3.732;2024-03-02T10:54:02;10.50;99.90
21019;DHT22;10667;51.056;3.732;2024-03-02T10:56:34;10.60;99.90
21019;DHT22;10667;51.056;3.732;2024-03-02T10:59:28;10.70;99.90
21019;DHT22;10667;51.056;3.732;2024-03-02T11:02:02;10.90;99.90
21019;DHT22;10667;51.056;3.732;2024-03-02T11:04:30;10.90;99.90
21019;DHT22;10667;51.056;3.732;2024-03-02T11:09:27;11.00;99.90
21019;DHT22;10667;51.056;3.732;2024-03-02T11:12:02;11.20;99.90
21019;DHT22;10667;51.056;3.732;2024-03-02T11:14:31;11.30;99.90
21019;DHT22;10667;51.056;3.732;2024-03-02T11:16:58;11.30;99.90
21019;DHT22;10667;51.056;3.732;2024-03-02T11:19:25;11.30;99.90
21019;DHT22;10667;51.056;3.732;2024-03-02T11:21:51;11.40;99.90
21019;DHT22;10667;51.056;3.732;2024-03-02T11:27:02;11.60;99.90
21019;DHT22;10667;51.056;3.732;2024-03-02T11:32:12;11.60;99.90
21019;DHT22;10667;51.056;3.732;2024-03-02T11:34:41;11.60;99.90
21019;DHT22;10667;51.056;3.732;2024-03-02T11:37:11;11.60;99.90
21019;DHT22;10667;51.056;3.732;2024-03-02T11:39:38;11.60;99.90
21019;DHT22;10667;51.056;3.732;2024-03-02T11:42:06;11.60;99.90
21019;DHT22;10667;51.056;3.732;2024-03-02T11:44:38;11.80;99.90
21019;DHT22;10667;51.056;3.732;2024-03-02T11:47:10;11.90;99.90
21019;DHT22;10667;51.056;3.732;2024-03-02T11:49:38;11.90;99.90
21019;DHT22;10667;51.056;3.732;2024-03-02T11:52:09;12.00;99.90
21019;DHT22;10667;51.056;3.732;2024-03-02T11:54:37;12.10;99.90
21019;DHT22;10667;51.056;3.732;2024-03-02T11:57:06;12.20;99.90
21019;DHT22;10667;51.056;3.732;2024-03-02T11:59:32;12.10;99.90
21019;DHT22;10667;51.056;3.732;2024-03-02T12:01:58;12.00;99.90
21019;DHT22;10667;51.056;3.732;2024-03-02T12:04:25;11.90;99.90
21019;DHT22;10667;51.056;3.732;2024-03-02T12:06:59;11.90;99.90
21019;DHT22;10667;51.056;3.732;2024-03-02T12:09:27;11.80;99.90
21019;DHT22;10667;51.056;3.732;2024-03-02T12:12:08;11.60;99.90
21019;DHT22;10667;51.056;3.732;2024-03-02T12:14:36;11.70;99.90
21019;DHT22;10667;51.056;3.732;2024-03-02T12:17:02;11.90;99.90
21019;DHT22;10667;51.056;3.732;2024-03-02T12:19:29;11.90;99.90
21019;DHT22;10667;51.056;3.732;2024-03-02T12:21:56;11.80;99.90
21019;DHT22;10667;51.056;3.732;2024-03-02T12:24:22;11.90;99.90
21019;DHT22;10667;51.056;3.732;2024-03-02T12:26:52;11.90;99.90
21019;DHT22;10667;51.056;3.732;2024-03-02T12:29:19;11.90;99.90
21019;DHT22;10667;51.056;3.732;2024-03-02T12:31:45;11.80;99.90
21019;DHT22;10667;51.056;3.732;2024-03-02T12:34:17;11.70;99.90
21019;DHT22;10667;51.056;3.732;2024-03-02T12:36:43;11.60;99.90
21019;DHT22;10667;51.056;3.732;2024-03-02T12:39:09;11.50;99.90
21019;DHT22;10667;51.056;3.732;2024-03-02T12:41:38;11.60;99.90
21019;DHT22;10667;51.056;3.732;2024-03-02T12:44:04;11.50;99.90
21019;DHT22;10667;51.056;3.732;2024-03-02T12:46:31;11.60;99.90
21019;DHT22;10667;51.056;3.732;2024-03-02T12:48:57;11.70;99.90
21019;DHT22;10667;51.056;3.732;2024-03-02T12:51:23;11.80;99.90
21019;DHT22;10667;51.056;3.732;2024-03-02T12:53:55;11.70;99.90
21019;DHT22;10667;51.056;3.732;2024-03-02T12:56:22;11.80;99.90
21019;DHT22;10667;51.056;3.732;2024-03-02T12:58:47;11.80;99.90
21019;DHT22;10667;51.056;3.732;2024-03-02T13:01:15;11.80;99.90
21019;DHT22;10667;51.056;3.732;2024-03-02T13:03:43;11.80;99.90
21019;DHT22;10667;51.056;3.732;2024-03-02T13:06:09;11.80;99.90
21019;DHT22;10667;51.056;3.732;2024-03-02T13:08:35;11.70;99.90
21019;DHT22;10667;51.056;3.732;2024-03-02T13:11:01;11.80;99.90
21019;DHT22;10667;51.056;3.732;2024-03-02T13:13:30;12.00;99.90
21019;DHT22;10667;51.056;3.732;2024-03-02T13:15:56;11.90;99.90
21019;DHT22;10667;51.056;3.732;2024-03-02T13:18:22;11.80;99.90
21019;DHT22;10667;51.056;3.732;2024-03-02T13:20:48;11.80;99.90
21019;DHT22;10667;51.056;3.732;2024-03-02T13:23:14;11.90;99.90
21019;DHT22;10667;51.056;3.732;2024-03-02T13:25:39;11.70;99.90
21019;DHT22;10667;51.056;3.732;2024-03-02T13:28:06;11.80;99.90
21019;DHT22;10667;51.056;3.732;2024-03-02T13:30:32;11.90;99.90
21019;DHT22;10667;51.056;3.732;2024-03-02T13:32:58;11.90;99.90
21019;DHT22;10667;51.056;3.732;2024-03-02T13:35:24;11.90;99.90
21019;DHT22;10667;51.056;3.732;2024-03-02T13:37:50;11.90;99.90
21019;DHT22;10667;51.056;3.732;2024-03-02T13:40:16;11.90;99.90
21019;DHT22;10667;51.056;3.732;2024-03-02T13:42:46;11.90;99.90
21019;DHT22;10667;51.056;3.732;2024-03-02T13:45:13;11.90;99.90
21019;DHT22;10667;51.056;3.732;2024-03-02T13:47:38;11.90;99.90
21019;DHT22;10667;51.056;3.732;2024-03-02T13:50:04;12.00;99.90
21019;DHT22;10667;51.056;3.732;2024-03-02T13:52:31;12.10;99.90
21019;DHT22;10667;51.056;3.732;2024-03-02T13:54:57;12.10;99.90
21019;DHT22;10667;51.056;3.732;2024-03-02T13:57:22;12.00;99.90
21019;DHT22;10667;51.056;3.732;2024-03-02T13:59:49;12.10;99.90
21019;DHT22;10667;51.056;3.732;2024-03-02T14:02:15;12.10;99.90
21019;DHT22;10667;51.056;3.732;2024-03-02T14:04:40;12.20;99.90
21019;DHT22;10667;51.056;3.732;2024-03-02T14:07:07;12.20;99.90
21019;DHT22;10667;51.056;3.732;2024-03-02T14:09:32;12.20;99.90
21019;DHT22;10667;51.056;3.732;2024-03-02T14:11:58;12.30;99.90
21019;DHT22;10667;51.056;3.732;2024-03-02T14:14:26;12.40;99.90
21019;DHT22;10667;51.056;3.732;2024-03-02T14:16:52;12.40;99.90
21019;DHT22;10667;51.056;3.732;2024-03-02T14:19:18;12.40;99.90
21019;DHT22;10667;51.056;3.732;2024-03-02T14:21:44;12.30;99.90
21019;DHT22;10667;51.056;3.732;2024-03-02T14:24:09;12.30;99.90
21019;DHT22;10667;51.056;3.732;2024-03-02T14:26:38;12.50;99.90
21019;DHT22;10667;51.056;3.732;2024-03-02T14:29:04;12.50;99.90
21019;DHT22;10667;51.056;3.732;2024-03-02T14:31:30;12.40;99.90
21019;DHT22;10667;51.056;3.732;2024-03-02T14:33:56;12.40;99.90
21019;DHT22;10667;51.056;3.732;2024-03-02T14:36:22;12.40;99.90
21019;DHT22;10667;51.056;3.732;2024-03-02T14:38:48;12.40;99.90
21019;DHT22;10667;51.056;3.732;2024-03-02T14:41:14;12.40;99.90
21019;DHT22;10667;51.056;3.732;2024-03-02T14:43:40;12.30;99.90
21019;DHT22;10667;51.056;3.732;2024-03-02T14:46:06;12.30;99.90
21019;DHT22;10667;51.056;3.732;2024-03-02T14:48:38;12.30;99.90
21019;DHT22;10667;51.056;3.732;2024-03-02T14:51:04;12.30;99.90
21019;DHT22;10667;51.056;3.732;2024-03-02T14:53:30;12.20;99.90
21019;DHT22;10667;51.056;3.732;2024-03-02T14:55:55;12.20;99.90
21019;DHT22;10667;51.056;3.732;2024-03-02T14:58:21;12.30;99.90
21019;DHT22;10667;51.056;3.732;2024-03-02T15:00:47;12.30;99.90
21019;DHT22;10667;51.056;3.732;2024-03-02T15:03:13;12.30;99.90
21019;DHT22;10667;51.056;3.732;2024-03-02T15:05:39;12.40;99.90
21019;DHT22;10667;51.056;3.732;2024-03-02T15:08:05;12.40;99.90
21019;DHT22;10667;51.056;3.732;2024-03-02T15:10:31;12.60;99.90
21019;DHT22;10667;51.056;3.732;2024-03-02T15:12:58;12.50;99.90
21019;DHT22;10667;51.056;3.732;2024-03-02T15:15:24;12.60;99.90
21019;DHT22;10667;51.056;3.732;2024-03-02T15:17:49;12.60;99.90
21019;DHT22;10667;51.056;3.732;2024-03-02T15:20:16;12.60;99.90
21019;DHT22;10667;51.056;3.732;2024-03-02T15:22:41;12.80;99.90
21019;DHT22;10667;51.056;3.732;2024-03-02T15:25:07;12.80;99.90
21019;DHT22;10667;51.056;3.732;2024-03-02T15:27:33;12.70;99.90
21019;DHT22;10667;51.056;3.732;2024-03-02T15:29:59;12.70;99.90
21019;DHT22;10667;51.056;3.732;2024-03-02T15:32:24;12.80;99.90
21019;DHT22;10667;51.056;3.732;2024-03-02T15:34:52;12.80;99.90
21019;DHT22;10667;51.056;3.732;2024-03-02T15:37:18;12.90;99.90
21019;DHT22;10667;51.056;3.732;2024-03-02T15:39:44;12.90;99.90
21019;DHT22;10667;51.056;3.732;2024-03-02T15:42:10;12.90;99.90
21019;DHT22;10667;51.056;3.732;2024-03-02T15:44:35;12.90;99.90
21019;DHT22;10667;51.056;3.732;2024-03-02T15:47:01;12.90;99.90
21019;DHT22;10667;51.056;3.732;2024-03-02T15:49:27;13.00;99.90